Time;durP1;ratioP1;P1;durP2;ratioP2;P2;SDS_P1;SDS_P2;PMS_P1;PMS_P2;Temp;Humidity;BMP_temperature;BMP_pressure;BME280_temperature;BME280_humidity;BME280_pressure;Samples;Min_cycle;Max_cycle;Signal;HPM_P1;HPM_P2
2023/04/28 00:01:29;;;;;;;10.75;6.38;;;;;;;;;;4984894;28;20386;-75
2023/04/28 00:03:56;;;;;;;12.57;7.20;;;;;;;;;;4988719;28;20018;-71
2023/04/28 00:06:21;;;;;;;11.82;6.65;;;;;;;;;;4986711;28;20029;-74
2023/04/28 00:08:46;;;;;;;12.23;6.97;;;;;;;;;;4989047;28;20023;-71
2023/04/28 00:11:11;;;;;;;13.80;7.55;;;;;;;;;;4991991;28;20018;-72
2023/04/28 00:13:37;;;;;;;13.97;7.40;;;;;;;;;;4981956;28;20076;-72
2023/04/28 00:16:02;;;;;;;12.82;7.70;;;;;;;;;;4991659;28;20505;-73
2023/04/28 00:18:27;;;;;;;12.13;7.27;;;;;;;;;;4991979;28;20105;-72
2023/04/28 00:20:54;;;;;;;11.20;6.47;;;;;;;;;;4990144;28;20019;-71
2023/04/28 00:23:19;;;;;;;12.10;6.68;;;;;;;;;;4991251;28;20413;-73
2023/04/28 00:25:49;;;;;;;11.13;7.07;;;;;;;;;;4988189;28;20118;-72
2023/04/28 00:28:14;;;;;;;12.70;7.20;;;;;;;;;;4982307;28;20014;-71
2023/04/28 00:30:39;;;;;;;13.23;7.80;;;;;;;;;;4990485;28;20025;-71
2023/04/28 00:33:04;;;;;;;13.10;6.93;;;;;;;;;;4985942;28;20025;-72
2023/04/28 00:35:30;;;;;;;11.63;7.37;;;;;;;;;;4986577;28;20109;-73
2023/04/28 00:37:55;;;;;;;11.82;7.32;;;;;;;;;;4990985;28;20023;-73
2023/04/28 00:40:20;;;;;;;11.27;6.78;;;;;;;;;;4993327;28;20030;-73
2023/04/28 00:42:45;;;;;;;11.63;7.03;;;;;;;;;;4990496;28;20091;-72
2023/04/28 00:45:10;;;;;;;12.75;7.18;;;;;;;;;;4987981;28;20018;-72
2023/04/28 00:47:36;;;;;;;9.67;6.40;;;;;;;;;;4991265;28;20019;-72
2023/04/28 00:50:02;;;;;;;14.75;7.07;;;;;;;;;;4983051;28;20105;-73
2023/04/28 00:52:27;;;;;;;13.07;7.40;;;;;;;;;;4981823;28;20041;-72
2023/04/28 00:54:53;;;;;;;13.13;7.28;;;;;;;;;;4987286;28;20496;-70
2023/04/28 00:57:18;;;;;;;12.48;6.97;;;;;;;;;;4984874;28;20034;-69
2023/04/28 00:59:43;;;;;;;13.45;7.20;;;;;;;;;;4983500;28;20109;-70
2023/04/28 01:02:15;;;;;;;11.68;6.30;;;;;;;;;;4986158;28;20145;-73
2023/04/28 01:04:41;;;;;;;12.02;6.97;;;;;;;;;;4991180;28;20545;-72
2023/04/28 01:07:06;;;;;;;12.48;6.63;;;;;;;;;;4989246;28;20021;-72
2023/04/28 01:09:31;;;;;;;10.57;6.80;;;;;;;;;;4981403;28;20106;-73
2023/04/28 01:11:57;;;;;;;11.27;6.75;;;;;;;;;;4983255;28;20503;-72
2023/04/28 01:14:22;;;;;;;12.63;7.00;;;;;;;;;;4977250;28;20014;-72
2023/04/28 01:16:47;;;;;;;11.33;6.67;;;;;;;;;;4985818;28;20061;-72
2023/04/28 01:19:18;;;;;;;11.30;6.67;;;;;;;;;;4982811;28;20011;-72
2023/04/28 01:21:43;;;;;;;11.00;6.47;;;;;;;;;;4988386;28;20461;-72
2023/04/28 01:24:08;;;;;;;11.93;7.07;;;;;;;;;;4985321;28;20019;-72
2023/04/28 01:26:34;;;;;;;11.85;6.90;;;;;;;;;;4988478;28;20034;-73
2023/04/28 01:28:59;;;;;;;10.68;6.18;;;;;;;;;;4987761;28;20037;-72
2023/04/28 01:31:24;;;;;;;13.50;6.80;;;;;;;;;;4989067;28;20064;-72
2023/04/28 01:33:49;;;;;;;13.02;7.07;;;;;;;;;;4984284;28;20742;-72
2023/04/28 01:36:14;;;;;;;12.07;7.03;;;;;;;;;;4983560;28;20113;-72
2023/04/28 01:38:40;;;;;;;10.45;6.35;;;;;;;;;;4986687;28;20081;-72
2023/04/28 01:41:05;;;;;;;14.10;7.63;;;;;;;;;;4982450;28;20482;-72
2023/04/28 01:43:30;;;;;;;13.50;6.55;;;;;;;;;;4988268;28;20022;-73
2023/04/28 01:45:55;;;;;;;14.15;6.95;;;;;;;;;;4978051;28;20031;-71
2023/04/28 01:48:20;;;;;;;12.00;6.87;;;;;;;;;;4984861;28;20439;-73
2023/04/28 01:50:45;;;;;;;12.57;6.70;;;;;;;;;;4981269;28;20053;-72
2023/04/28 01:53:10;;;;;;;13.63;7.13;;;;;;;;;;4986901;28;20120;-72
2023/04/28 01:55:36;;;;;;;15.50;6.93;;;;;;;;;;4984269;28;20128;-73
2023/04/28 01:58:02;;;;;;;11.18;6.57;;;;;;;;;;4988430;28;20022;-72
2023/04/28 02:00:27;;;;;;;11.90;7.13;;;;;;;;;;4987910;28;20022;-72
2023/04/28 02:02:52;;;;;;;14.05;7.00;;;;;;;;;;4982426;28;20045;-72
2023/04/28 02:05:17;;;;;;;10.80;6.63;;;;;;;;;;4981906;28;20022;-72
2023/04/28 02:07:42;;;;;;;11.97;7.20;;;;;;;;;;4983420;28;20113;-73
2023/04/28 02:10:08;;;;;;;10.07;6.25;;;;;;;;;;4982870;28;20030;-71
2023/04/28 02:12:33;;;;;;;11.23;6.30;;;;;;;;;;4979862;28;20475;-70
2023/04/28 02:14:58;;;;;;;10.33;6.53;;;;;;;;;;4979038;28;20039;-70
2023/04/28 02:17:23;;;;;;;12.43;6.33;;;;;;;;;;4984272;28;20026;-72
2023/04/28 02:19:53;;;;;;;12.23;7.43;;;;;;;;;;4983424;28;20397;-71
2023/04/28 02:22:18;;;;;;;11.65;6.65;;;;;;;;;;4978814;28;20024;-70
2023/04/28 02:24:43;;;;;;;12.93;7.13;;;;;;;;;;4973561;28;20022;-72
2023/04/28 02:27:08;;;;;;;10.93;6.85;;;;;;;;;;4985597;28;20038;-71
2023/04/28 02:29:33;;;;;;;11.97;7.00;;;;;;;;;;4979670;28;20062;-72
2023/04/28 02:31:59;;;;;;;12.30;6.50;;;;;;;;;;4986362;28;20023;-69
2023/04/28 02:34:24;;;;;;;11.50;6.33;;;;;;;;;;4988060;28;20018;-71
2023/04/28 02:36:49;;;;;;;14.25;6.50;;;;;;;;;;4979761;28;20041;-71
2023/04/28 02:39:14;;;;;;;15.38;7.25;;;;;;;;;;4991227;28;20087;-71
2023/04/28 02:41:39;;;;;;;12.95;7.32;;;;;;;;;;4989020;28;20465;-71
2023/04/28 02:44:04;;;;;;;11.43;6.45;;;;;;;;;;4984558;28;20118;-69
2023/04/28 02:46:29;;;;;;;12.27;7.32;;;;;;;;;;4977616;28;20061;-71
2023/04/28 02:48:55;;;;;;;11.75;6.38;;;;;;;;;;4988918;28;20424;-69
2023/04/28 02:51:20;;;;;;;11.70;6.78;;;;;;;;;;4991863;28;20022;-71
2023/04/28 02:53:45;;;;;;;11.95;6.40;;;;;;;;;;4985190;28;20026;-69
2023/04/28 02:56:10;;;;;;;12.23;7.00;;;;;;;;;;4984170;28;20030;-71
2023/04/28 02:58:35;;;;;;;13.10;7.03;;;;;;;;;;4988629;28;20052;-70
2023/04/28 03:01:01;;;;;;;12.83;7.13;;;;;;;;;;4986923;28;20022;-70
2023/04/28 03:03:26;;;;;;;12.25;6.60;;;;;;;;;;4989694;28;20050;-73
2023/04/28 03:05:51;;;;;;;13.23;6.50;;;;;;;;;;4989387;28;20034;-74
2023/04/28 03:08:16;;;;;;;16.60;7.57;;;;;;;;;;4984618;28;20088;-72
2023/04/28 03:10:41;;;;;;;11.93;6.87;;;;;;;;;;4991812;28;20531;-73
2023/04/28 03:13:06;;;;;;;13.90;6.85;;;;;;;;;;4989560;28;20875;-72
2023/04/28 03:15:32;;;;;;;12.73;6.60;;;;;;;;;;4990114;28;20431;-72
2023/04/28 03:17:57;;;;;;;12.73;6.27;;;;;;;;;;4992448;28;20026;-72
2023/04/28 03:20:22;;;;;;;13.90;6.67;;;;;;;;;;4980605;28;20507;-72
2023/04/28 03:22:47;;;;;;;11.20;6.40;;;;;;;;;;4982029;28;20027;-71
2023/04/28 03:25:12;;;;;;;13.43;6.50;;;;;;;;;;4986144;28;20037;-71
2023/04/28 03:27:38;;;;;;;16.83;7.10;;;;;;;;;;4983290;28;20018;-71
2023/04/28 03:30:03;;;;;;;12.13;6.83;;;;;;;;;;4981469;28;20080;-71
2023/04/28 03:32:28;;;;;;;11.65;6.38;;;;;;;;;;4980791;28;20033;-72
2023/04/28 03:34:53;;;;;;;9.63;6.13;;;;;;;;;;4988734;28;20115;-71
2023/04/28 03:37:18;;;;;;;12.05;6.88;;;;;;;;;;4985915;28;20034;-71
2023/04/28 03:39:43;;;;;;;13.13;7.18;;;;;;;;;;4983291;28;20062;-71
2023/04/28 03:42:09;;;;;;;11.82;6.10;;;;;;;;;;4989903;28;20045;-71
2023/04/28 03:44:34;;;;;;;12.98;6.28;;;;;;;;;;4987106;28;20025;-71
2023/04/28 03:47:00;;;;;;;11.35;6.15;;;;;;;;;;4992126;28;20022;-71
2023/04/28 03:49:25;;;;;;;14.60;6.13;;;;;;;;;;4991370;28;20045;-72
2023/04/28 03:51:50;;;;;;;12.83;6.30;;;;;;;;;;4983826;28;20026;-70
2023/04/28 03:54:16;;;;;;;11.02;6.22;;;;;;;;;;4983274;28;20552;-71
2023/04/28 03:56:41;;;;;;;9.97;6.00;;;;;;;;;;4982475;28;20070;-71
2023/04/28 03:59:10;;;;;;;13.73;6.63;;;;;;;;;;4989466;28;20050;-70
2023/04/28 04:01:35;;;;;;;11.77;7.03;;;;;;;;;;4988250;28;20029;-70
2023/04/28 04:04:00;;;;;;;12.03;6.27;;;;;;;;;;4989851;28;20022;-72
2023/04/28 04:06:26;;;;;;;11.65;6.18;;;;;;;;;;4983700;28;20095;-71
2023/04/28 04:08:51;;;;;;;11.00;5.63;;;;;;;;;;4990726;28;20031;-71
2023/04/28 04:11:16;;;;;;;10.38;5.68;;;;;;;;;;4985291;28;20030;-71
2023/04/28 04:13:41;;;;;;;15.18;7.35;;;;;;;;;;4990127;28;20042;-71
2023/04/28 04:16:06;;;;;;;11.93;5.90;;;;;;;;;;4987919;28;20050;-71
2023/04/28 04:18:31;;;;;;;12.40;6.07;;;;;;;;;;4980091;28;20030;-71
2023/04/28 04:20:56;;;;;;;9.73;5.65;;;;;;;;;;4982422;28;20061;-71
2023/04/28 04:23:22;;;;;;;10.93;6.07;;;;;;;;;;4985172;28;20019;-72
2023/04/28 04:25:47;;;;;;;10.10;5.97;;;;;;;;;;4979030;28;20027;-71
2023/04/28 04:28:12;;;;;;;9.85;5.70;;;;;;;;;;4980253;28;20122;-71
2023/04/28 04:30:37;;;;;;;13.85;6.60;;;;;;;;;;4988313;28;20034;-71
2023/04/28 04:33:03;;;;;;;10.67;6.00;;;;;;;;;;4992054;28;20037;-72
2023/04/28 04:35:28;;;;;;;10.17;5.77;;;;;;;;;;4989993;28;20029;-71
2023/04/28 04:37:53;;;;;;;11.05;5.57;;;;;;;;;;4989688;28;20477;-73
2023/04/28 04:40:18;;;;;;;11.13;6.55;;;;;;;;;;4985036;28;20069;-71
2023/04/28 04:42:43;;;;;;;13.17;6.20;;;;;;;;;;4978802;28;20145;-72
2023/04/28 04:45:08;;;;;;;13.30;6.20;;;;;;;;;;4975697;28;20019;-71
2023/04/28 04:47:34;;;;;;;14.40;6.63;;;;;;;;;;4975934;28;20467;-73
2023/04/28 04:49:59;;;;;;;14.23;5.80;;;;;;;;;;4975431;28;20038;-73
2023/04/28 04:52:24;;;;;;;12.35;6.35;;;;;;;;;;4978681;28;20034;-72
2023/04/28 04:54:49;;;;;;;13.87;6.60;;;;;;;;;;4974931;28;20041;-72
2023/04/28 04:57:14;;;;;;;12.00;6.53;;;;;;;;;;4987208;28;20445;-71
2023/04/28 04:59:40;;;;;;;13.57;5.97;;;;;;;;;;4983216;28;20026;-72
2023/04/28 05:02:05;;;;;;;14.68;6.25;;;;;;;;;;4985311;28;20520;-71
2023/04/28 05:04:30;;;;;;;12.30;6.07;;;;;;;;;;4983627;28;20030;-71
2023/04/28 05:06:55;;;;;;;10.25;5.65;;;;;;;;;;4981189;28;20038;-72
2023/04/28 05:09:21;;;;;;;15.67;6.57;;;;;;;;;;4977366;28;20493;-72
2023/04/28 05:11:47;;;;;;;11.50;5.60;;;;;;;;;;4981473;28;20022;-71
2023/04/28 05:14:12;;;;;;;12.40;5.65;;;;;;;;;;4985035;28;20022;-71
2023/04/28 05:16:38;;;;;;;16.33;5.87;;;;;;;;;;4984510;28;20027;-71
2023/04/28 05:19:03;;;;;;;11.93;6.03;;;;;;;;;;4981535;28;20030;-71
2023/04/28 05:21:28;;;;;;;11.05;5.80;;;;;;;;;;4983595;28;20029;-72
2023/04/28 05:23:54;;;;;;;11.77;5.90;;;;;;;;;;4983430;28;20030;-70
2023/04/28 05:26:19;;;;;;;12.73;5.90;;;;;;;;;;4983062;28;20449;-70
2023/04/28 05:28:44;;;;;;;13.80;5.95;;;;;;;;;;4983693;28;20022;-71
2023/04/28 05:31:10;;;;;;;10.70;5.37;;;;;;;;;;4991542;28;20084;-70
2023/04/28 05:33:35;;;;;;;13.03;6.13;;;;;;;;;;4989459;28;20018;-72
2023/04/28 05:36:00;;;;;;;12.25;6.00;;;;;;;;;;4986146;28;20019;-71
2023/04/28 05:38:25;;;;;;;11.83;5.40;;;;;;;;;;4986168;28;20740;-70
2023/04/28 05:40:50;;;;;;;12.13;5.43;;;;;;;;;;4982581;28;20026;-72
2023/04/28 05:43:16;;;;;;;11.45;5.72;;;;;;;;;;4984297;28;20041;-71
2023/04/28 05:45:41;;;;;;;12.57;5.32;;;;;;;;;;4991333;28;20026;-71
2023/04/28 05:48:06;;;;;;;11.25;5.32;;;;;;;;;;4991199;28;20018;-70
2023/04/28 05:50:31;;;;;;;12.73;5.70;;;;;;;;;;4984934;28;20469;-72
2023/04/28 05:52:57;;;;;;;11.20;5.05;;;;;;;;;;4987434;28;20557;-74
2023/04/28 05:55:22;;;;;;;12.50;5.33;;;;;;;;;;4989616;28;20081;-72
2023/04/28 05:57:47;;;;;;;11.85;5.57;;;;;;;;;;4976563;28;20508;-72
2023/04/28 06:00:13;;;;;;;11.70;4.97;;;;;;;;;;4983503;28;20029;-72
2023/04/28 06:02:38;;;;;;;10.27;5.15;;;;;;;;;;4977055;28;20461;-75
2023/04/28 06:05:03;;;;;;;13.18;6.07;;;;;;;;;;4985086;28;20022;-71
2023/04/28 06:07:28;;;;;;;9.75;5.38;;;;;;;;;;4982405;28;20167;-72
2023/04/28 06:09:54;;;;;;;12.60;5.70;;;;;;;;;;4981532;28;20023;-73
2023/04/28 06:12:19;;;;;;;10.85;5.20;;;;;;;;;;4983507;28;20030;-73
2023/04/28 06:14:44;;;;;;;9.97;5.07;;;;;;;;;;4987982;28;20069;-71
2023/04/28 06:17:09;;;;;;;13.60;5.40;;;;;;;;;;4991487;28;20041;-72
2023/04/28 06:19:34;;;;;;;10.27;5.37;;;;;;;;;;4986521;28;20022;-71
2023/04/28 06:21:59;;;;;;;14.23;5.47;;;;;;;;;;4976862;28;20019;-71
2023/04/28 06:24:25;;;;;;;11.35;5.53;;;;;;;;;;4982501;28;20030;-70
2023/04/28 06:26:50;;;;;;;11.53;4.57;;;;;;;;;;4984646;28;20030;-72
2023/04/28 06:29:15;;;;;;;9.70;5.40;;;;;;;;;;4988079;28;20508;-73
2023/04/28 06:31:40;;;;;;;9.77;5.13;;;;;;;;;;4990620;28;20030;-72
2023/04/28 06:34:06;;;;;;;13.07;5.13;;;;;;;;;;4989369;28;20027;-72
2023/04/28 06:36:31;;;;;;;9.35;4.82;;;;;;;;;;4987362;28;20065;-71
2023/04/28 06:38:57;;;;;;;11.25;4.60;;;;;;;;;;4987950;28;20072;-71
2023/04/28 06:41:22;;;;;;;11.18;4.65;;;;;;;;;;4982610;28;20447;-70
2023/04/28 06:43:49;;;;;;;13.10;5.43;;;;;;;;;;4982401;28;20387;-71
2023/04/28 06:46:15;;;;;;;11.70;5.25;;;;;;;;;;4975111;28;20525;-71
2023/04/28 06:48:40;;;;;;;9.18;5.00;;;;;;;;;;4975994;28;20109;-71
2023/04/28 06:51:05;;;;;;;9.05;5.10;;;;;;;;;;4987376;28;20037;-71
2023/04/28 06:53:30;;;;;;;10.23;5.18;;;;;;;;;;4993691;28;20068;-70
2023/04/28 06:55:56;;;;;;;9.65;4.70;;;;;;;;;;4989831;28;20060;-72
2023/04/28 06:58:21;;;;;;;13.93;5.40;;;;;;;;;;4981965;28;20027;-71
2023/04/28 07:00:46;;;;;;;10.05;4.82;;;;;;;;;;4982424;28;20030;-71
2023/04/28 07:03:11;;;;;;;8.95;5.05;;;;;;;;;;4974179;28;20038;-70
2023/04/28 07:05:36;;;;;;;10.52;4.80;;;;;;;;;;4975271;28;20390;-71
2023/04/28 07:08:02;;;;;;;10.90;4.97;;;;;;;;;;4974396;28;20034;-69
2023/04/28 07:10:27;;;;;;;9.98;5.22;;;;;;;;;;4974812;28;20117;-71
2023/04/28 07:12:52;;;;;;;9.35;4.32;;;;;;;;;;4982857;28;20513;-71
2023/04/28 07:15:17;;;;;;;9.20;4.70;;;;;;;;;;4988961;28;20018;-71
2023/04/28 07:17:43;;;;;;;9.80;4.67;;;;;;;;;;4993948;28;20064;-69
2023/04/28 07:20:08;;;;;;;9.63;4.97;;;;;;;;;;4993829;28;20030;-70
2023/04/28 07:22:33;;;;;;;10.90;5.00;;;;;;;;;;4993330;28;20030;-70
2023/04/28 07:24:58;;;;;;;10.82;4.50;;;;;;;;;;4992981;28;20034;-69
2023/04/28 07:27:24;;;;;;;10.20;4.77;;;;;;;;;;4994052;28;20030;-69
2023/04/28 07:29:49;;;;;;;9.80;4.43;;;;;;;;;;4984975;28;20037;-70
2023/04/28 07:32:14;;;;;;;11.90;4.88;;;;;;;;;;4979592;28;20093;-71
2023/04/28 07:34:39;;;;;;;9.97;4.90;;;;;;;;;;4974075;28;20047;-70
2023/04/28 07:37:05;;;;;;;9.13;4.70;;;;;;;;;;4974313;28;20034;-71
2023/04/28 07:39:31;;;;;;;10.18;4.65;;;;;;;;;;4974153;28;20201;-70
2023/04/28 07:41:56;;;;;;;10.27;4.93;;;;;;;;;;4974523;28;20105;-70
2023/04/28 07:44:22;;;;;;;11.80;5.03;;;;;;;;;;4980964;28;20026;-70
2023/04/28 07:46:47;;;;;;;11.60;4.60;;;;;;;;;;4981882;28;20025;-71
2023/04/28 07:49:12;;;;;;;8.53;4.67;;;;;;;;;;4974139;28;20360;-70
2023/04/28 07:51:37;;;;;;;10.07;4.53;;;;;;;;;;4974127;28;20479;-70
2023/04/28 07:54:02;;;;;;;11.83;5.33;;;;;;;;;;4972961;28;20487;-71
2023/04/28 07:56:28;;;;;;;9.63;4.97;;;;;;;;;;4975129;28;20118;-71
2023/04/28 07:58:53;;;;;;;10.02;4.72;;;;;;;;;;4984023;28;20023;-70
2023/04/28 08:01:19;;;;;;;11.30;4.70;;;;;;;;;;4978687;28;20379;-71
2023/04/28 08:03:44;;;;;;;9.80;4.80;;;;;;;;;;4973124;28;20027;-71
2023/04/28 08:06:09;;;;;;;11.98;4.93;;;;;;;;;;4973649;28;20030;-70
2023/04/28 08:08:35;;;;;;;8.23;4.53;;;;;;;;;;4974392;28;20070;-71
2023/04/28 08:11:00;;;;;;;9.90;4.40;;;;;;;;;;4974898;28;20031;-70
2023/04/28 08:13:27;;;;;;;13.88;4.80;;;;;;;;;;4981847;28;20529;-71
2023/04/28 08:15:52;;;;;;;9.77;4.40;;;;;;;;;;4992252;28;20097;-70
2023/04/28 08:18:18;;;;;;;11.50;4.25;;;;;;;;;;4992749;28;20098;-72
2023/04/28 08:20:43;;;;;;;13.65;4.95;;;;;;;;;;4992798;28;20035;-71
2023/04/28 08:23:08;;;;;;;11.50;4.57;;;;;;;;;;4992188;28;20026;-70
2023/04/28 08:25:34;;;;;;;9.93;4.47;;;;;;;;;;4993553;28;20034;-70
2023/04/28 08:27:59;;;;;;;10.88;4.50;;;;;;;;;;4992687;28;20022;-70
2023/04/28 08:30:24;;;;;;;11.40;4.07;;;;;;;;;;4982107;28;20029;-69
2023/04/28 08:32:49;;;;;;;8.37;4.07;;;;;;;;;;4978175;28;20022;-70
2023/04/28 08:35:14;;;;;;;8.47;3.97;;;;;;;;;;4978497;28;20442;-69
2023/04/28 08:37:40;;;;;;;8.85;4.15;;;;;;;;;;4973026;28;20085;-70
2023/04/28 08:40:08;;;;;;;8.18;3.90;;;;;;;;;;4973578;28;20029;-72
2023/04/28 08:42:33;;;;;;;9.65;4.38;;;;;;;;;;4972920;28;20031;-71
2023/04/28 08:44:59;;;;;;;9.88;4.45;;;;;;;;;;4972939;28;20110;-69
2023/04/28 08:47:34;;;;;;;12.67;4.20;;;;;;;;;;4981813;28;20470;-69
2023/04/28 08:50:04;;;;;;;10.63;4.05;;;;;;;;;;4975163;28;20054;-70
2023/04/28 08:52:29;;;;;;;8.98;4.30;;;;;;;;;;4974776;28;20442;-71
2023/04/28 08:54:55;;;;;;;8.85;4.22;;;;;;;;;;4975191;28;20105;-71
2023/04/28 08:57:20;;;;;;;9.88;4.18;;;;;;;;;;4975752;28;20123;-69
2023/04/28 08:59:45;;;;;;;7.57;4.33;;;;;;;;;;4974468;28;20038;-71
2023/04/28 09:02:11;;;;;;;10.63;4.40;;;;;;;;;;4985021;28;20538;-71
2023/04/28 09:04:36;;;;;;;8.17;4.10;;;;;;;;;;4984808;28;20023;-70
2023/04/28 09:07:01;;;;;;;9.27;4.20;;;;;;;;;;4974620;28;20054;-69
2023/04/28 09:09:29;;;;;;;8.23;4.00;;;;;;;;;;4975231;28;20026;-69
2023/04/28 09:12:00;;;;;;;7.40;3.47;;;;;;;;;;4972616;28;20027;-69
2023/04/28 09:14:26;;;;;;;10.15;4.13;;;;;;;;;;4971825;28;20022;-69
2023/04/28 09:16:51;;;;;;;10.30;4.10;;;;;;;;;;4973925;28;20027;-69
2023/04/28 09:19:17;;;;;;;8.18;4.03;;;;;;;;;;4983689;28;20478;-69
2023/04/28 09:21:50;;;;;;;8.75;4.00;;;;;;;;;;4974119;28;20037;-69
2023/04/28 09:24:25;;;;;;;7.35;3.38;;;;;;;;;;4972070;28;20044;-69
2023/04/28 09:26:50;;;;;;;7.85;3.33;;;;;;;;;;4977742;28;20034;-69
2023/04/28 09:29:15;;;;;;;6.17;3.20;;;;;;;;;;4980874;28;20494;-69
2023/04/28 09:31:41;;;;;;;8.60;3.08;;;;;;;;;;4972571;28;20035;-69
2023/04/28 09:34:08;;;;;;;7.88;3.58;;;;;;;;;;4974205;28;20054;-69
2023/04/28 09:36:33;;;;;;;;;;;;;;;;;;4980794;28;20395;-69
2023/04/28 09:38:59;;;;;;;7.28;2.95;;;;;;;;;;4972069;28;19917;-72
2023/04/28 09:41:44;;;;;;;7.53;2.97;;;;;;;;;;4972161;28;20030;-69
2023/04/28 09:44:17;;;;;;;6.88;3.20;;;;;;;;;;4971080;28;20113;-70
2023/04/28 09:46:43;;;;;;;7.22;2.42;;;;;;;;;;4971795;28;20050;-72
2023/04/28 09:49:08;;;;;;;7.13;2.80;;;;;;;;;;4972165;28;20020;-68
2023/04/28 09:51:34;;;;;;;8.50;2.90;;;;;;;;;;4978505;28;20042;-70
2023/04/28 09:54:00;;;;;;;6.35;2.63;;;;;;;;;;4978573;28;20098;-71
2023/04/28 09:56:26;;;;;;;6.93;2.70;;;;;;;;;;4971865;28;20027;-71
2023/04/28 09:58:52;;;;;;;7.15;3.10;;;;;;;;;;4971499;28;20038;-69
2023/04/28 10:01:18;;;;;;;7.95;3.20;;;;;;;;;;4971550;28;20023;-68
2023/04/28 10:03:43;;;;;;;9.25;2.80;;;;;;;;;;4971240;28;20109;-69
2023/04/28 10:06:08;;;;;;;6.50;2.73;;;;;;;;;;4980156;28;20029;-70
2023/04/28 10:08:34;;;;;;;8.75;2.92;;;;;;;;;;4973596;28;20018;-70
2023/04/28 10:11:00;;;;;;;6.18;3.03;;;;;;;;;;4983089;28;20114;-69
2023/04/28 10:13:25;;;;;;;8.63;3.15;;;;;;;;;;4990664;28;20026;-70
2023/04/28 10:15:54;;;;;;;6.53;2.90;;;;;;;;;;4991075;28;20022;-70
2023/04/28 10:18:21;;;;;;;6.82;3.03;;;;;;;;;;4991212;28;20029;-70
2023/04/28 10:20:47;;;;;;;9.90;3.40;;;;;;;;;;4991681;28;20018;-68
2023/04/28 10:23:23;;;;;;;8.93;2.80;;;;;;;;;;4983553;28;20080;-68
2023/04/28 10:25:53;;;;;;;7.43;3.03;;;;;;;;;;4990136;28;20022;-70
2023/04/28 10:28:18;;;;;;;7.85;3.40;;;;;;;;;;4989407;28;20030;-70
2023/04/28 10:31:03;;;;;;;8.30;3.07;;;;;;;;;;4990985;28;20015;-69
2023/04/28 10:33:29;;;;;;;7.45;2.80;;;;;;;;;;4989817;28;20460;-69
2023/04/28 10:35:54;;;;;;;8.20;3.28;;;;;;;;;;4990701;28;20026;-71
2023/04/28 10:38:22;;;;;;;7.25;2.80;;;;;;;;;;4989352;28;20011;-70
2023/04/28 10:40:48;;;;;;;6.38;2.90;;;;;;;;;;4980411;28;20026;-70
2023/04/28 10:43:32;;;;;;;11.60;3.72;;;;;;;;;;4970668;28;20377;-70
2023/04/28 10:46:00;;;;;;;7.07;3.15;;;;;;;;;;4977220;28;20011;-71
2023/04/28 10:48:25;;;;;;;7.70;3.55;;;;;;;;;;4979231;28;20412;-70
2023/04/28 10:51:03;;;;;;;8.23;3.60;;;;;;;;;;4971306;28;20387;-69
2023/04/28 10:53:43;;;;;;;7.63;3.50;;;;;;;;;;4970899;28;20019;-70
2023/04/28 10:56:09;;;;;;;6.45;3.72;;;;;;;;;;4971395;28;20375;-70
2023/04/28 10:58:36;;;;;;;12.00;4.20;;;;;;;;;;4974500;28;20109;-73
2023/04/28 11:01:20;;;;;;;9.60;4.25;;;;;;;;;;4986719;28;20015;-69
2023/04/28 11:03:45;;;;;;;8.15;4.22;;;;;;;;;;4983688;28;20126;-70
2023/04/28 11:06:18;;;;;;;10.60;4.20;;;;;;;;;;4980960;28;20114;-70
2023/04/28 11:08:43;;;;;;;8.50;4.38;;;;;;;;;;4974491;28;20019;-70
2023/04/28 11:11:12;;;;;;;8.98;4.28;;;;;;;;;;4973320;28;20029;-71
2023/04/28 11:13:37;;;;;;;8.32;4.00;;;;;;;;;;4974014;28;20764;-69
2023/04/28 11:16:05;;;;;;;9.20;3.70;;;;;;;;;;4980230;28;20121;-69
2023/04/28 11:18:51;;;;;;;8.32;3.85;;;;;;;;;;4986798;28;20397;-69
2023/04/28 11:21:17;;;;;;;10.15;4.28;;;;;;;;;;4992667;28;20034;-70
2023/04/28 11:23:43;;;;;;;9.73;4.50;;;;;;;;;;4995955;28;20046;-70
2023/04/28 11:26:08;;;;;;;7.32;4.13;;;;;;;;;;4998679;28;20077;-70
2023/04/28 11:28:35;;;;;;;9.15;4.22;;;;;;;;;;4998816;28;20105;-70
2023/04/28 11:31:11;;;;;;;8.88;4.63;;;;;;;;;;4985264;28;20109;-71
2023/04/28 11:33:37;;;;;;;13.18;4.97;;;;;;;;;;4983345;28;20026;-71
2023/04/28 11:36:02;;;;;;;8.75;4.30;;;;;;;;;;4993395;28;20113;-72
2023/04/28 11:38:27;;;;;;;8.80;4.47;;;;;;;;;;4992218;28;20117;-71
2023/04/28 11:40:58;;;;;;;10.05;5.00;;;;;;;;;;4993277;28;20037;-70
2023/04/28 11:43:29;;;;;;;10.13;4.63;;;;;;;;;;4993191;28;20026;-70
2023/04/28 11:45:56;;;;;;;10.73;4.85;;;;;;;;;;4993545;28;20065;-70
2023/04/28 11:48:21;;;;;;;10.10;4.75;;;;;;;;;;4984352;28;20022;-70
2023/04/28 11:50:46;;;;;;;10.40;5.30;;;;;;;;;;4975612;28;20372;-71
2023/04/28 11:53:11;;;;;;;10.15;4.85;;;;;;;;;;4973845;28;20368;-69
2023/04/28 11:55:36;;;;;;;12.55;5.93;;;;;;;;;;4974969;28;20027;-71
2023/04/28 11:58:22;;;;;;;11.43;5.60;;;;;;;;;;4972945;28;20023;-71
2023/04/28 12:01:08;;;;;;;8.90;5.18;;;;;;;;;;4977998;28;20018;-71
2023/04/28 12:03:41;;;;;;;13.70;6.20;;;;;;;;;;4973609;28;20490;-70
2023/04/28 12:06:06;;;;;;;10.60;5.38;;;;;;;;;;4984339;28;20076;-69
2023/04/28 12:08:31;;;;;;;11.63;5.10;;;;;;;;;;4977067;28;20023;-69
2023/04/28 12:11:07;;;;;;;8.18;4.53;;;;;;;;;;4972563;28;20031;-69
2023/04/28 12:13:32;;;;;;;8.93;4.20;;;;;;;;;;4972852;28;20445;-69
2023/04/28 12:16:00;;;;;;;11.13;4.87;;;;;;;;;;4984917;28;20022;-70
2023/04/28 12:18:26;;;;;;;10.20;5.10;;;;;;;;;;4988353;28;20026;-68
2023/04/28 12:20:51;;;;;;;10.90;4.68;;;;;;;;;;4982238;28;20463;-71
2023/04/28 12:23:27;;;;;;;8.97;4.43;;;;;;;;;;4978929;28;20030;-71
2023/04/28 12:25:52;;;;;;;8.15;4.57;;;;;;;;;;4981419;28;20030;-72
2023/04/28 12:28:17;;;;;;;10.23;4.70;;;;;;;;;;4977337;28;20393;-71
2023/04/28 12:30:43;;;;;;;9.68;5.03;;;;;;;;;;4972440;28;20177;-69
2023/04/28 12:33:22;;;;;;;11.68;5.95;;;;;;;;;;4985346;28;20026;-69
2023/04/28 12:35:48;;;;;;;11.88;5.47;;;;;;;;;;4971750;28;20085;-72
2023/04/28 12:38:14;;;;;;;;;;;;;;;;;;4974893;28;20482;-71
2023/04/28 12:40:40;;;;;;;11.00;6.30;;;;;;;;;;4973538;28;19906;-72
2023/04/28 12:43:05;;;;;;;11.55;6.40;;;;;;;;;;4970723;28;20374;-71
2023/04/28 12:45:31;;;;;;;11.00;6.23;;;;;;;;;;4971105;28;20078;-69
2023/04/28 12:47:56;;;;;;;12.50;7.32;;;;;;;;;;4971092;28;20034;-69
2023/04/28 12:50:22;;;;;;;12.53;7.73;;;;;;;;;;4971008;28;20434;-69
2023/04/28 12:52:47;;;;;;;11.80;8.18;;;;;;;;;;4972074;28;20029;-69
2023/04/28 12:55:12;;;;;;;13.23;7.47;;;;;;;;;;4973946;28;20034;-71
2023/04/28 12:57:37;;;;;;;12.37;7.60;;;;;;;;;;4984829;28;20026;-69
2023/04/28 13:00:03;;;;;;;12.10;8.13;;;;;;;;;;4980429;28;20026;-70
2023/04/28 13:02:28;;;;;;;12.68;7.30;;;;;;;;;;4973937;28;20604;-70
2023/04/28 13:04:53;;;;;;;14.40;8.20;;;;;;;;;;4974023;28;20023;-69
2023/04/28 13:07:18;;;;;;;12.60;7.50;;;;;;;;;;4977948;28;20046;-70
2023/04/28 13:09:44;;;;;;;15.80;8.40;;;;;;;;;;4975393;28;20038;-70
2023/04/28 13:12:10;;;;;;;12.73;7.57;;;;;;;;;;4976855;28;20010;-71
2023/04/28 13:14:35;;;;;;;12.50;7.45;;;;;;;;;;4982180;28;20022;-70
2023/04/28 13:17:02;;;;;;;13.77;7.80;;;;;;;;;;4983595;28;20096;-71
2023/04/28 13:19:28;;;;;;;13.88;8.43;;;;;;;;;;4982481;28;20180;-70
2023/04/28 13:21:54;;;;;;;14.70;7.90;;;;;;;;;;4988017;28;20031;-70
2023/04/28 13:24:19;;;;;;;15.30;7.97;;;;;;;;;;4979577;28;20510;-71
2023/04/28 13:26:44;;;;;;;14.68;8.05;;;;;;;;;;4982828;28;20117;-71
2023/04/28 13:29:10;;;;;;;13.45;7.88;;;;;;;;;;4981407;28;20022;-74
2023/04/28 13:31:35;;;;;;;13.63;6.97;;;;;;;;;;4986874;28;20023;-71
2023/04/28 13:34:01;;;;;;;13.20;8.17;;;;;;;;;;4980703;28;20109;-71
2023/04/28 13:36:28;;;;;;;14.80;9.18;;;;;;;;;;4986544;28;20038;-70
2023/04/28 13:38:53;;;;;;;15.43;8.80;;;;;;;;;;4989018;28;20474;-70
2023/04/28 13:41:18;;;;;;;12.68;8.00;;;;;;;;;;4988763;28;20023;-70
2023/04/28 13:43:43;;;;;;;15.20;8.50;;;;;;;;;;4985702;28;20184;-69
2023/04/28 13:46:09;;;;;;;13.20;8.13;;;;;;;;;;4977927;28;20031;-70
2023/04/28 13:48:38;;;;;;;14.93;8.65;;;;;;;;;;4976781;28;20030;-70
2023/04/28 13:51:03;;;;;;;17.38;9.45;;;;;;;;;;4983215;28;20031;-69
2023/04/28 13:53:29;;;;;;;13.38;8.30;;;;;;;;;;4979835;28;20367;-71
2023/04/28 13:55:56;;;;;;;16.17;8.45;;;;;;;;;;4987502;28;20447;-71
2023/04/28 13:58:22;;;;;;;14.70;7.85;;;;;;;;;;4978352;28;20030;-70
2023/04/28 14:00:47;;;;;;;12.85;8.20;;;;;;;;;;4979726;28;20030;-70
2023/04/28 14:03:12;;;;;;;14.00;8.77;;;;;;;;;;4982072;28;20538;-71
2023/04/28 14:05:37;;;;;;;15.00;8.70;;;;;;;;;;4973064;28;20027;-71
2023/04/28 14:08:03;;;;;;;13.30;9.00;;;;;;;;;;4972277;28;20022;-71
2023/04/28 14:10:28;;;;;;;13.83;8.97;;;;;;;;;;4982825;28;20034;-70
2023/04/28 14:12:53;;;;;;;14.07;8.57;;;;;;;;;;4985967;28;20023;-71
2023/04/28 14:15:18;;;;;;;13.35;8.60;;;;;;;;;;4986173;28;20026;-70
2023/04/28 14:17:43;;;;;;;15.77;8.73;;;;;;;;;;4982025;28;20081;-70
2023/04/28 14:20:10;;;;;;;14.07;8.23;;;;;;;;;;4970110;28;20109;-70
2023/04/28 14:22:35;;;;;;;16.17;8.85;;;;;;;;;;4979089;28;20089;-70
2023/04/28 14:25:00;;;;;;;13.63;8.53;;;;;;;;;;4985692;28;20022;-71
2023/04/28 14:27:26;;;;;;;14.70;8.70;;;;;;;;;;4986570;28;20030;-72